createdAt,value
2018-02-03T00:01:06.775Z,0
2018-02-03T00:02:16.516Z,0
2018-02-03T00:03:26.072Z,0
2018-02-03T00:04:36.308Z,0
2018-02-03T00:05:46.293Z,0
2018-02-03T00:06:56.288Z,0
2018-02-03T00:08:06.270Z,0
2018-02-03T00:09:16.053Z,0
2018-02-03T00:10:25.593Z,0
2018-02-03T00:11:35.579Z,0
2018-02-03T00:12:45.044Z,0
2018-02-03T00:13:54.789Z,0
2018-02-03T00:15:04.798Z,0
2018-02-03T00:16:14.785Z,0
2018-02-03T00:17:24.771Z,0
2018-02-03T00:18:34.227Z,0
2018-02-03T00:19:43.704Z,0
2018-02-03T00:20:53.692Z,0
2018-02-03T00:22:03.682Z,0
2018-02-03T00:23:13.152Z,0
2018-02-03T00:24:23.134Z,0
2018-02-03T00:25:33.111Z,0
2018-02-03T00:26:42.840Z,0
2018-02-03T00:27:52.565Z,0
2018-02-03T00:29:02.286Z,0
2018-02-03T00:30:11.973Z,0
2018-02-03T00:31:21.918Z,0
2018-02-03T00:32:31.871Z,0
2018-02-03T00:33:41.819Z,0
2018-02-03T00:34:51.503Z,0
2018-02-03T00:36:01.274Z,0
2018-02-03T00:37:10.910Z,0
2018-02-03T00:38:20.851Z,0
2018-02-03T00:39:30.836Z,0
2018-02-03T00:40:40.785Z,0
2018-02-03T00:41:50.714Z,0
2018-02-03T00:43:00.643Z,0
2018-02-03T00:44:10.079Z,0
2018-02-03T00:45:20.026Z,0
2018-02-03T00:46:29.971Z,0
2018-02-03T00:47:39.917Z,0
2018-02-03T00:48:49.596Z,0
2018-02-03T00:49:59.535Z,0
2018-02-03T00:51:09.498Z,0
2018-02-03T00:52:19.476Z,0
2018-02-03T00:53:29.449Z,0
2018-02-03T00:54:39.427Z,0
2018-02-03T00:55:49.404Z,0
2018-02-03T00:56:59.132Z,0
2018-02-03T00:58:09.101Z,0
2018-02-03T00:59:19.070Z,0
2018-02-03T01:00:28.812Z,0
2018-02-03T01:01:38.543Z,0
2018-02-03T01:02:48.507Z,0
2018-02-03T01:03:58.506Z,0
2018-02-03T01:05:08.491Z,0
2018-02-03T01:06:18.468Z,0
2018-02-03T01:07:28.449Z,0
2018-02-03T01:08:38.451Z,0
2018-02-03T01:09:48.448Z,0
2018-02-03T01:10:58.423Z,0
2018-02-03T01:12:08.411Z,0
2018-02-03T01:13:18.393Z,0
2018-02-03T01:14:28.108Z,0
2018-02-03T01:15:37.571Z,0
2018-02-03T01:16:47.558Z,0
2018-02-03T01:17:57.271Z,0
2018-02-03T01:19:06.802Z,0
2018-02-03T01:20:16.534Z,0
2018-02-03T01:21:25.993Z,0
2018-02-03T01:22:35.723Z,0
2018-02-03T01:23:45.449Z,0
2018-02-03T01:24:55.428Z,0
2018-02-03T01:26:05.411Z,0
2018-02-03T01:27:15.380Z,0
2018-02-03T01:28:25.350Z,0
2018-02-03T01:29:35.065Z,0
2018-02-03T01:30:45.039Z,0
2018-02-03T01:31:55.277Z,0
2018-02-03T01:33:05.265Z,0
2018-02-03T01:34:15.243Z,0
2018-02-03T01:35:25.223Z,0
2018-02-03T01:36:35.239Z,0
2018-02-03T01:37:44.450Z,0
2018-02-03T01:38:54.424Z,0
2018-02-03T01:40:04.145Z,0
2018-02-03T01:41:13.870Z,0
2018-02-03T01:42:23.836Z,0
2018-02-03T01:43:33.816Z,0
2018-02-03T01:44:43.757Z,0
2018-02-03T01:45:53.697Z,0
2018-02-03T01:47:03.372Z,0
2018-02-03T01:48:13.051Z,0
2018-02-03T01:49:23.032Z,0
2018-02-03T01:50:32.972Z,0
2018-02-03T01:51:42.907Z,0
2018-02-03T01:52:53.081Z,0
2018-02-03T01:54:03.065Z,0
2018-02-03T01:55:13.030Z,0
2018-02-03T01:56:23.015Z,0
2018-02-03T01:57:32.995Z,0
2018-02-03T01:58:42.981Z,0
2018-02-03T01:59:52.969Z,0
2018-02-03T02:01:02.944Z,0
2018-02-03T02:02:12.924Z,0
2018-02-03T02:03:22.916Z,0
2018-02-03T02:04:32.896Z,0
2018-02-03T02:05:42.881Z,0
2018-02-03T02:06:52.137Z,0
2018-02-03T02:08:02.129Z,0
2018-02-03T02:09:11.852Z,0
2018-02-03T02:10:21.819Z,0
2018-02-03T02:11:31.819Z,0
2018-02-03T02:12:41.544Z,0
2018-02-03T02:13:51.268Z,0
2018-02-03T02:15:01.232Z,0
2018-02-03T02:16:10.955Z,0
2018-02-03T02:17:20.937Z,0
2018-02-03T02:18:30.921Z,0
2018-02-03T02:19:40.943Z,0
2018-02-03T02:20:50.933Z,0
2018-02-03T02:22:00.906Z,0
2018-02-03T02:23:10.353Z,0
2018-02-03T02:24:20.091Z,0
2018-02-03T02:25:30.072Z,0
2018-02-03T02:26:40.048Z,0
2018-02-03T02:27:50.026Z,0
2018-02-03T02:28:59.989Z,0
2018-02-03T02:30:09.766Z,0
2018-02-03T02:31:19.803Z,0
2018-02-03T02:32:29.779Z,0
2018-02-03T02:33:39.759Z,0
2018-02-03T02:34:49.761Z,0
2018-02-03T02:35:59.479Z,0
2018-02-03T02:37:09.455Z,0
2018-02-03T02:38:18.919Z,0
2018-02-03T02:39:28.911Z,0
2018-02-03T02:40:38.635Z,0
2018-02-03T02:41:48.614Z,0
2018-02-03T02:42:58.605Z,0
2018-02-03T02:44:08.596Z,0
2018-02-03T02:45:18.329Z,0
2018-02-03T02:46:28.318Z,0
2018-02-03T02:47:38.289Z,0
2018-02-03T02:48:48.269Z,0
2018-02-03T02:49:58.319Z,0
2018-02-03T02:51:08.285Z,0
2018-02-03T02:52:18.284Z,0
2018-02-03T02:53:28.008Z,0
2018-02-03T02:54:37.984Z,0
2018-02-03T02:55:47.711Z,0
2018-02-03T02:56:57.710Z,0
2018-02-03T02:58:07.438Z,0
2018-02-03T02:59:17.428Z,0
2018-02-03T03:00:27.387Z,0
2018-02-03T03:01:37.368Z,0
2018-02-03T03:02:47.440Z,0
2018-02-03T03:03:56.926Z,0
2018-02-03T03:05:06.860Z,0
2018-02-03T03:06:16.303Z,0
2018-02-03T03:07:26.248Z,0
2018-02-03T03:08:36.187Z,0
2018-02-03T03:09:46.125Z,0
2018-02-03T03:10:56.109Z,0
2018-02-03T03:12:06.101Z,0
2018-02-03T03:13:16.064Z,0
2018-02-03T03:14:25.528Z,0
2018-02-03T03:15:35.519Z,0
2018-02-03T03:16:45.235Z,0
2018-02-03T03:17:54.951Z,0
2018-02-03T03:19:04.686Z,0
2018-02-03T03:20:14.401Z,0
2018-02-03T03:21:24.377Z,0
2018-02-03T03:22:34.096Z,0
2018-02-03T03:23:44.088Z,0
2018-02-03T03:24:53.814Z,0
2018-02-03T03:26:03.790Z,0
2018-02-03T03:27:13.767Z,0
2018-02-03T03:28:23.768Z,0
2018-02-03T03:29:33.750Z,0
2018-02-03T03:30:43.735Z,0
2018-02-03T03:31:53.195Z,0
2018-02-03T03:33:02.873Z,0
2018-02-03T03:34:12.821Z,0
2018-02-03T03:35:22.753Z,0
2018-02-03T03:36:32.688Z,0
2018-02-03T03:37:42.366Z,0
2018-02-03T03:38:52.310Z,0
2018-02-03T03:40:02.277Z,0
2018-02-03T03:41:12.210Z,0
2018-02-03T03:42:21.899Z,0
2018-02-03T03:43:31.624Z,0
2018-02-03T03:44:41.593Z,0
2018-02-03T03:45:51.325Z,0
2018-02-03T03:47:01.267Z,0
2018-02-03T03:48:11.271Z,0
2018-02-03T03:49:21.214Z,0
2018-02-03T03:50:30.904Z,0
2018-02-03T03:51:40.856Z,0
2018-02-03T03:52:50.302Z,0
2018-02-03T03:54:00.087Z,0
2018-02-03T03:55:10.065Z,0
2018-02-03T03:56:19.772Z,0
2018-02-03T03:57:29.759Z,0
2018-02-03T03:58:39.742Z,0
2018-02-03T03:59:49.716Z,0
2018-02-03T04:00:59.700Z,0
2018-02-03T04:02:09.422Z,0
2018-02-03T04:03:19.144Z,0
2018-02-03T04:04:28.621Z,0
2018-02-03T04:05:38.611Z,0
2018-02-03T04:06:48.596Z,0
2018-02-03T04:07:58.575Z,0
2018-02-03T04:09:08.287Z,0
2018-02-03T04:10:18.036Z,0
2018-02-03T04:11:27.809Z,0
2018-02-03T04:12:37.793Z,0
2018-02-03T04:13:47.263Z,0
2018-02-03T04:14:56.978Z,0
2018-02-03T04:16:06.678Z,0
2018-02-03T04:17:16.365Z,0
2018-02-03T04:18:26.046Z,0
2018-02-03T04:19:35.469Z,0
2018-02-03T04:20:45.413Z,0
2018-02-03T04:21:55.353Z,0
2018-02-03T04:23:05.044Z,0
2018-02-03T04:24:15.022Z,0
2018-02-03T04:25:24.709Z,0
2018-02-03T04:26:34.389Z,0
2018-02-03T04:27:44.323Z,0
2018-02-03T04:28:54.262Z,0
2018-02-03T04:30:04.442Z,0
2018-02-03T04:31:14.394Z,0
2018-02-03T04:32:24.094Z,0
2018-02-03T04:33:34.023Z,0
2018-02-03T04:34:43.955Z,0
2018-02-03T04:35:53.641Z,0
2018-02-03T04:37:03.360Z,0
2018-02-03T04:38:13.338Z,0
2018-02-03T04:39:23.044Z,0
2018-02-03T04:40:32.766Z,0
2018-02-03T04:41:42.764Z,0
2018-02-03T04:42:52.489Z,0
2018-02-03T04:44:02.462Z,0
2018-02-03T04:45:12.483Z,0
2018-02-03T04:46:22.473Z,0
2018-02-03T04:47:32.186Z,0
2018-02-03T04:48:42.150Z,0
2018-02-03T04:49:52.138Z,0
2018-02-03T04:51:01.870Z,0
2018-02-03T04:52:11.845Z,0
2018-02-03T04:53:21.826Z,0
2018-02-03T04:54:31.290Z,0
2018-02-03T04:55:41.310Z,0
2018-02-03T04:56:51.294Z,0
2018-02-03T04:58:01.016Z,0
2018-02-03T04:59:10.735Z,0
2018-02-03T05:00:20.588Z,0
2018-02-03T05:01:30.315Z,0
2018-02-03T05:02:40.285Z,0
2018-02-03T05:03:50.340Z,0
2018-02-03T05:05:00.314Z,0
2018-02-03T05:06:10.089Z,0
2018-02-03T05:07:19.853Z,0
2018-02-03T05:08:29.841Z,0
2018-02-03T05:09:39.814Z,0
2018-02-03T05:10:49.821Z,0
2018-02-03T05:11:59.800Z,0
2018-02-03T05:13:09.251Z,0
2018-02-03T05:14:19.247Z,0
2018-02-03T05:15:29.232Z,0
2018-02-03T05:16:38.945Z,0
2018-02-03T05:17:48.940Z,0
2018-02-03T05:18:58.909Z,0
2018-02-03T05:20:08.883Z,0
2018-02-03T05:21:18.906Z,0
2018-02-03T05:22:28.622Z,0
2018-02-03T05:23:38.087Z,0
2018-02-03T05:24:47.818Z,0
2018-02-03T05:25:57.787Z,0
2018-02-03T05:27:07.785Z,0
2018-02-03T05:28:17.769Z,0
2018-02-03T05:29:27.732Z,0
2018-02-03T05:30:38.013Z,0
2018-02-03T05:31:47.747Z,0
2018-02-03T05:32:57.739Z,0
2018-02-03T05:34:07.708Z,0
2018-02-03T05:35:17.686Z,0
2018-02-03T05:36:27.670Z,0
2018-02-03T05:37:37.655Z,0
2018-02-03T05:38:47.630Z,0
2018-02-03T05:39:57.350Z,0
2018-02-03T05:41:07.337Z,0
2018-02-03T05:42:17.054Z,0
2018-02-03T05:43:26.252Z,0
2018-02-03T05:44:36.279Z,0
2018-02-03T05:45:46.268Z,0
2018-02-03T05:46:56.000Z,0
2018-02-03T05:48:05.973Z,0
2018-02-03T05:49:16.007Z,0
2018-02-03T05:50:25.475Z,0
2018-02-03T05:51:35.447Z,0
2018-02-03T05:52:45.411Z,0
2018-02-03T05:53:55.386Z,0
2018-02-03T05:55:05.357Z,0
2018-02-03T05:56:15.329Z,0
2018-02-03T05:57:24.790Z,0
2018-02-03T05:58:34.510Z,0
2018-02-03T05:59:43.972Z,0
2018-02-03T06:00:53.670Z,0
2018-02-03T06:02:03.393Z,0
2018-02-03T06:03:13.498Z,0
2018-02-03T06:04:23.214Z,0
2018-02-03T06:05:32.937Z,0
2018-02-03T06:06:42.918Z,0
2018-02-03T06:07:52.649Z,0
2018-02-03T06:09:02.632Z,0
2018-02-03T06:10:12.603Z,0
2018-02-03T06:11:22.330Z,0
2018-02-03T06:12:32.058Z,0
2018-02-03T06:13:41.779Z,0
2018-02-03T06:14:51.506Z,0
2018-02-03T06:16:01.475Z,0
2018-02-03T06:17:11.204Z,0
2018-02-03T06:18:21.185Z,0
2018-02-03T06:19:30.900Z,0
2018-02-03T06:20:40.620Z,0
2018-02-03T06:21:50.605Z,0
2018-02-03T06:23:00.573Z,0
2018-02-03T06:24:10.293Z,0
2018-02-03T06:25:20.288Z,0
2018-02-03T06:26:30.010Z,0
2018-02-03T06:27:39.993Z,0
2018-02-03T06:28:49.707Z,0
2018-02-03T06:29:59.690Z,0
2018-02-03T06:31:09.415Z,0
2018-02-03T06:32:18.872Z,0
2018-02-03T06:33:28.847Z,0
2018-02-03T06:34:38.823Z,0
2018-02-03T06:35:48.798Z,0
2018-02-03T06:36:58.788Z,0
2018-02-03T06:38:08.765Z,0
2018-02-03T06:39:18.748Z,0
2018-02-03T06:40:28.733Z,0
2018-02-03T06:41:38.713Z,0
2018-02-03T06:42:48.693Z,0
2018-02-03T06:43:58.406Z,0
2018-02-03T06:45:08.170Z,0
2018-02-03T06:46:18.152Z,0
2018-02-03T06:47:27.861Z,5
2018-02-03T06:48:37.584Z,5
2018-02-03T06:49:47.589Z,5
2018-02-03T06:50:57.559Z,5
2018-02-03T06:52:07.593Z,5
2018-02-03T06:53:17.321Z,5
2018-02-03T06:54:27.035Z,5
2018-02-03T06:55:37.009Z,5
2018-02-03T06:56:46.985Z,5
2018-02-03T06:57:56.966Z,5
2018-02-03T06:59:06.764Z,5
2018-02-03T07:00:16.533Z,10
2018-02-03T07:01:26.509Z,10
2018-02-03T07:02:36.481Z,10
2018-02-03T07:03:46.463Z,10
2018-02-03T07:04:56.456Z,10
2018-02-03T07:06:06.438Z,10
2018-02-03T07:07:16.422Z,10
2018-02-03T07:08:26.419Z,15
2018-02-03T07:09:35.883Z,15
2018-02-03T07:10:45.859Z,15
2018-02-03T07:11:55.856Z,15
2018-02-03T07:13:05.845Z,15
2018-02-03T07:14:15.817Z,15
2018-02-03T07:15:25.537Z,20
2018-02-03T07:16:35.514Z,20
2018-02-03T07:17:45.506Z,20
2018-02-03T07:18:55.490Z,25
2018-02-03T07:20:05.468Z,25
2018-02-03T07:21:15.453Z,25
2018-02-03T07:22:25.440Z,25
2018-02-03T07:23:35.428Z,25
2018-02-03T07:24:45.408Z,20
2018-02-03T07:25:55.130Z,20
2018-02-03T07:27:04.578Z,20
2018-02-03T07:28:14.557Z,20
2018-02-03T07:29:24.535Z,25
2018-02-03T07:30:34.259Z,30
2018-02-03T07:31:43.985Z,30
2018-02-03T07:32:53.712Z,30
2018-02-03T07:34:03.171Z,35
2018-02-03T07:35:12.888Z,35
2018-02-03T07:36:22.608Z,40
2018-02-03T07:37:32.597Z,50
2018-02-03T07:38:42.317Z,55
2018-02-03T07:39:52.309Z,60
2018-02-03T07:41:02.298Z,60
2018-02-03T07:42:12.279Z,65
2018-02-03T07:43:22.263Z,65
2018-02-03T07:44:32.591Z,65
2018-02-03T07:45:42.303Z,60
2018-02-03T07:46:52.296Z,60
2018-02-03T07:48:02.018Z,60
2018-02-03T07:49:11.469Z,60
2018-02-03T07:50:21.212Z,55
2018-02-03T07:51:31.287Z,50
2018-02-03T07:52:41.264Z,45
2018-02-03T07:53:51.241Z,40
2018-02-03T07:55:01.232Z,40
2018-02-03T07:56:10.947Z,40
2018-02-03T07:57:20.667Z,40
2018-02-03T07:58:30.631Z,45
2018-02-03T07:59:40.369Z,45
2018-02-03T08:00:50.355Z,40
2018-02-03T08:02:00.061Z,40
2018-02-03T08:03:09.778Z,40
2018-02-03T08:04:19.761Z,40
2018-02-03T08:05:29.758Z,45
2018-02-03T08:06:39.484Z,50
2018-02-03T08:07:49.500Z,55
2018-02-03T08:08:59.471Z,60
2018-02-03T08:10:09.225Z,65
2018-02-03T08:11:19.291Z,70
2018-02-03T08:12:29.008Z,70
2018-02-03T08:13:38.998Z,75
2018-02-03T08:14:48.729Z,75
2018-02-03T08:15:58.706Z,70
2018-02-03T08:17:08.170Z,70
2018-02-03T08:18:18.155Z,75
2018-02-03T08:19:28.447Z,75
2018-02-03T08:20:38.489Z,75
2018-02-03T08:21:48.199Z,75
2018-02-03T08:22:58.179Z,75
2018-02-03T08:24:08.179Z,80
2018-02-03T08:25:18.152Z,90
2018-02-03T08:26:27.876Z,100
2018-02-03T08:27:37.596Z,115
2018-02-03T08:28:47.591Z,145
2018-02-03T08:29:57.592Z,160
2018-02-03T08:31:07.573Z,165
2018-02-03T08:32:17.569Z,155
2018-02-03T08:33:27.558Z,145
2018-02-03T08:34:37.550Z,140
2018-02-03T08:35:47.531Z,145
2018-02-03T08:36:57.261Z,140
2018-02-03T08:38:07.254Z,135
2018-02-03T08:39:16.964Z,115
2018-02-03T08:40:26.950Z,100
2018-02-03T08:41:36.944Z,95
2018-02-03T08:42:46.980Z,85
2018-02-03T08:43:56.707Z,80
2018-02-03T08:45:06.728Z,85
2018-02-03T08:46:16.448Z,110
2018-02-03T08:47:26.451Z,130
2018-02-03T08:48:36.434Z,135
2018-02-03T08:49:46.161Z,145
2018-02-03T08:50:55.899Z,125
2018-02-03T08:52:05.897Z,100
2018-02-03T08:53:15.881Z,85
2018-02-03T08:54:25.602Z,80
2018-02-03T08:55:35.339Z,80
2018-02-03T08:56:45.360Z,85
2018-02-03T08:57:55.390Z,85
2018-02-03T08:59:05.381Z,90
2018-02-03T09:00:15.111Z,110
2018-02-03T09:01:24.589Z,140
2018-02-03T09:02:34.566Z,145
2018-02-03T09:03:44.544Z,125
2018-02-03T09:04:54.534Z,120
2018-02-03T09:06:04.534Z,120
2018-02-03T09:07:14.515Z,105
2018-02-03T09:08:24.235Z,100
2018-02-03T09:09:34.237Z,80
2018-02-03T09:10:43.964Z,75
2018-02-03T09:11:53.942Z,65
2018-02-03T09:13:03.910Z,70
2018-02-03T09:14:13.923Z,70
2018-02-03T09:15:23.677Z,80
2018-02-03T09:16:33.418Z,85
2018-02-03T09:17:43.402Z,90
2018-02-03T09:18:53.375Z,105
2018-02-03T09:20:03.359Z,115
2018-02-03T09:21:13.089Z,130
2018-02-03T09:22:23.070Z,130
2018-02-03T09:23:33.055Z,130
2018-02-03T09:24:42.795Z,130
2018-02-03T09:25:52.785Z,145
2018-02-03T09:27:02.759Z,185
2018-02-03T09:28:12.481Z,225
2018-02-03T09:29:22.205Z,220
2018-02-03T09:30:32.207Z,220
2018-02-03T09:31:42.179Z,230
2018-02-03T09:32:51.909Z,225
2018-02-03T09:34:01.886Z,220
2018-02-03T09:35:11.889Z,215
2018-02-03T09:36:21.861Z,210
2018-02-03T09:37:31.814Z,200
2018-02-03T09:38:41.533Z,215
2018-02-03T09:39:51.003Z,210
2018-02-03T09:41:00.733Z,220
2018-02-03T09:42:10.447Z,195
2018-02-03T09:43:19.917Z,195
2018-02-03T09:44:29.920Z,195
2018-02-03T09:45:39.911Z,190
2018-02-03T09:46:49.631Z,200
2018-02-03T09:47:59.638Z,225
2018-02-03T09:49:09.117Z,225
2018-02-03T09:50:19.124Z,190
2018-02-03T09:51:29.114Z,170
2018-02-03T09:52:39.108Z,160
2018-02-03T09:53:49.101Z,165
2018-02-03T09:54:58.820Z,165
2018-02-03T09:56:08.799Z,160
2018-02-03T09:57:18.529Z,150
2018-02-03T09:58:28.535Z,145
2018-02-03T09:59:38.511Z,145
2018-02-03T10:00:48.504Z,135
2018-02-03T10:01:58.523Z,125
2018-02-03T10:03:08.245Z,125
2018-02-03T10:04:18.246Z,125
2018-02-03T10:05:28.240Z,130
2018-02-03T10:06:38.211Z,140
2018-02-03T10:07:48.198Z,140
2018-02-03T10:08:58.202Z,135
2018-02-03T10:10:07.920Z,135
2018-02-03T10:11:17.646Z,130
2018-02-03T10:12:27.626Z,135
2018-02-03T10:13:37.618Z,140
2018-02-03T10:14:47.611Z,140
2018-02-03T10:15:57.342Z,140
2018-02-03T10:17:07.380Z,140
2018-02-03T10:18:17.376Z,140
2018-02-03T10:19:27.371Z,140
2018-02-03T10:20:37.371Z,140
2018-02-03T10:21:47.102Z,150
2018-02-03T10:22:57.085Z,145
2018-02-03T10:24:06.825Z,140
2018-02-03T10:25:16.822Z,145
2018-02-03T10:26:26.555Z,155
2018-02-03T10:27:36.556Z,155
2018-02-03T10:28:46.536Z,150
2018-02-03T10:29:56.254Z,145
2018-02-03T10:31:06.262Z,135
2018-02-03T10:32:16.295Z,135
2018-02-03T10:33:26.267Z,130
2018-02-03T10:34:36.266Z,120
2018-02-03T10:35:46.259Z,120
2018-02-03T10:36:56.228Z,115
2018-02-03T10:38:06.242Z,115
2018-02-03T10:39:15.966Z,120
2018-02-03T10:40:25.952Z,125
2018-02-03T10:41:35.931Z,140
2018-02-03T10:42:45.392Z,155
2018-02-03T10:43:55.125Z,155
2018-02-03T10:45:05.109Z,150
2018-02-03T10:46:15.083Z,145
2018-02-03T10:47:25.085Z,130
2018-02-03T10:48:35.078Z,125
2018-02-03T10:49:45.066Z,120
2018-02-03T10:50:55.063Z,115
2018-02-03T10:52:05.067Z,115
2018-02-03T10:53:14.526Z,110
2018-02-03T10:54:24.528Z,110
2018-02-03T10:55:34.253Z,115
2018-02-03T10:56:43.975Z,120
2018-02-03T10:57:53.969Z,120
2018-02-03T10:59:03.691Z,120
2018-02-03T11:00:13.422Z,115
2018-02-03T11:01:23.428Z,115
2018-02-03T11:02:33.167Z,115
2018-02-03T11:03:42.897Z,115
2018-02-03T11:04:52.908Z,115
2018-02-03T11:06:02.141Z,115
2018-02-03T11:07:12.115Z,125
2018-02-03T11:08:22.183Z,150
2018-02-03T11:09:32.169Z,155
2018-02-03T11:10:42.158Z,140
2018-02-03T11:11:51.897Z,135
2018-02-03T11:13:01.878Z,130
2018-02-03T11:14:11.595Z,130
2018-02-03T11:15:21.594Z,140
2018-02-03T11:16:31.366Z,140
2018-02-03T11:17:41.344Z,140
2018-02-03T11:18:51.067Z,145
2018-02-03T11:20:00.793Z,150
2018-02-03T11:21:10.532Z,150
2018-02-03T11:22:20.265Z,155
2018-02-03T11:23:30.246Z,155
2018-02-03T11:24:40.237Z,150
2018-02-03T11:25:50.256Z,145
2018-02-03T11:27:00.278Z,140
2018-02-03T11:28:10.012Z,140
2018-02-03T11:29:20.016Z,140
2018-02-03T11:30:29.490Z,145
2018-02-03T11:31:39.218Z,165
2018-02-03T11:32:49.210Z,230
2018-02-03T11:33:59.198Z,300
2018-02-03T11:35:08.920Z,305
2018-02-03T11:36:18.979Z,295
2018-02-03T11:37:28.955Z,305
2018-02-03T11:38:38.670Z,345
2018-02-03T11:39:48.401Z,325
2018-02-03T11:40:58.381Z,315
2018-02-03T11:42:08.396Z,300
2018-02-03T11:43:18.411Z,300
2018-02-03T11:44:28.407Z,290
2018-02-03T11:45:37.881Z,265
2018-02-03T11:46:47.353Z,240
2018-02-03T11:47:57.325Z,220
2018-02-03T11:49:06.864Z,205
2018-02-03T11:50:16.598Z,195
2018-02-03T11:51:26.598Z,175
2018-02-03T11:52:36.580Z,170
2018-02-03T11:53:46.395Z,165
2018-02-03T11:54:56.370Z,165
2018-02-03T11:56:06.366Z,150
2018-02-03T11:57:16.347Z,145
2018-02-03T11:58:26.346Z,135
2018-02-03T11:59:36.076Z,125
2018-02-03T12:00:45.280Z,115
2018-02-03T12:01:55.281Z,110
2018-02-03T12:03:04.749Z,105
2018-02-03T12:04:14.489Z,100
2018-02-03T12:05:24.200Z,100
2018-02-03T12:06:33.428Z,105
2018-02-03T12:07:43.421Z,110
2018-02-03T12:08:53.417Z,115
2018-02-03T12:10:03.409Z,125
2018-02-03T12:11:13.176Z,135
2018-02-03T12:12:23.144Z,155
2018-02-03T12:13:32.891Z,160
2018-02-03T12:14:42.889Z,165
2018-02-03T12:15:52.886Z,170
2018-02-03T12:17:02.363Z,170
2018-02-03T12:18:12.351Z,160
2018-02-03T12:19:22.072Z,160
2018-02-03T12:20:32.069Z,170
2018-02-03T12:21:42.065Z,190
2018-02-03T12:22:52.035Z,205
2018-02-03T12:24:01.781Z,200
2018-02-03T12:25:11.517Z,200
2018-02-03T12:26:21.246Z,200
2018-02-03T12:27:31.004Z,195
2018-02-03T12:28:40.734Z,195
2018-02-03T12:29:50.482Z,190
2018-02-03T12:31:00.472Z,185
2018-02-03T12:32:10.452Z,185
2018-02-03T12:33:20.440Z,170
2018-02-03T12:34:30.172Z,165
2018-02-03T12:35:39.918Z,160
2018-02-03T12:36:49.659Z,155
2018-02-03T12:37:59.657Z,155
2018-02-03T12:39:09.658Z,175
2018-02-03T12:40:19.656Z,200
2018-02-03T12:41:29.662Z,215
2018-02-03T12:42:39.651Z,215
2018-02-03T12:43:49.666Z,225
2018-02-03T12:44:59.770Z,225
2018-02-03T12:46:09.776Z,230
2018-02-03T12:47:19.758Z,220
2018-02-03T12:48:29.498Z,215
2018-02-03T12:49:39.510Z,215
2018-02-03T12:50:48.976Z,210
2018-02-03T12:51:58.974Z,215
2018-02-03T12:53:08.463Z,215
2018-02-03T12:54:18.437Z,210
2018-02-03T12:55:28.436Z,205
2018-02-03T12:56:38.415Z,215
2018-02-03T12:57:47.633Z,210
2018-02-03T12:58:57.637Z,200
2018-02-03T13:00:07.638Z,195
2018-02-03T13:01:17.384Z,195
2018-02-03T13:02:27.378Z,185
2018-02-03T13:03:37.108Z,165
2018-02-03T13:04:47.083Z,155
2018-02-03T13:05:57.078Z,150
2018-02-03T13:07:06.799Z,150
2018-02-03T13:08:16.787Z,155
2018-02-03T13:09:26.769Z,160
2018-02-03T13:10:36.501Z,175
2018-02-03T13:11:46.487Z,180
2018-02-03T13:12:56.214Z,180
2018-02-03T13:14:05.952Z,180
2018-02-03T13:15:15.673Z,180
2018-02-03T13:16:25.400Z,180
2018-02-03T13:17:35.125Z,185
2018-02-03T13:18:44.883Z,205
2018-02-03T13:19:54.616Z,210
2018-02-03T13:21:04.349Z,215
2018-02-03T13:22:14.364Z,220
2018-02-03T13:23:24.366Z,220
2018-02-03T13:24:34.370Z,220
2018-02-03T13:25:44.353Z,210
2018-02-03T13:26:54.088Z,195
2018-02-03T13:28:04.079Z,185
2018-02-03T13:29:14.065Z,175
2018-02-03T13:30:23.791Z,165
2018-02-03T13:31:33.263Z,160
2018-02-03T13:32:42.999Z,150
2018-02-03T13:33:52.986Z,155
2018-02-03T13:35:02.722Z,165
2018-02-03T13:36:12.713Z,165
2018-02-03T13:37:22.711Z,165
2018-02-03T13:38:32.763Z,160
2018-02-03T13:39:42.765Z,165
2018-02-03T13:40:52.504Z,165
2018-02-03T13:42:02.505Z,165
2018-02-03T13:43:12.245Z,165
2018-02-03T13:44:22.236Z,170
2018-02-03T13:45:32.039Z,175
2018-02-03T13:46:42.040Z,170
2018-02-03T13:47:52.038Z,170
2018-02-03T13:49:02.036Z,175
2018-02-03T13:50:11.795Z,170
2018-02-03T13:51:21.517Z,160
2018-02-03T13:52:31.253Z,155
2018-02-03T13:53:40.981Z,155
2018-02-03T13:54:50.968Z,145
2018-02-03T13:56:00.688Z,140
2018-02-03T13:57:10.175Z,140
2018-02-03T13:58:20.202Z,140
2018-02-03T13:59:30.191Z,135
2018-02-03T14:00:39.935Z,135
2018-02-03T14:01:49.944Z,140
2018-02-03T14:02:59.671Z,130
2018-02-03T14:04:09.430Z,125
2018-02-03T14:05:19.425Z,120
2018-02-03T14:06:29.405Z,120
2018-02-03T14:07:39.408Z,125
2018-02-03T14:08:49.136Z,125
2018-02-03T14:09:59.127Z,125
2018-02-03T14:11:09.124Z,130
2018-02-03T14:12:18.862Z,130
2018-02-03T14:13:28.846Z,130
2018-02-03T14:14:38.858Z,140
2018-02-03T14:15:48.851Z,145
2018-02-03T14:16:58.574Z,145
2018-02-03T14:18:08.572Z,145
2018-02-03T14:19:18.564Z,145
2018-02-03T14:20:28.534Z,145
2018-02-03T14:21:38.009Z,145
2018-02-03T14:22:48.031Z,145
2018-02-03T14:23:57.488Z,145
2018-02-03T14:25:07.493Z,145
2018-02-03T14:26:17.491Z,145
2018-02-03T14:27:27.239Z,145
2018-02-03T14:28:36.706Z,140
2018-02-03T14:29:46.703Z,130
2018-02-03T14:30:56.895Z,125
2018-02-03T14:32:06.137Z,120
2018-02-03T14:33:16.133Z,120
2018-02-03T14:34:25.883Z,115
2018-02-03T14:35:35.624Z,115
2018-02-03T14:36:45.636Z,110
2018-02-03T14:37:55.631Z,105
2018-02-03T14:39:05.390Z,100
2018-02-03T14:40:14.865Z,90
2018-02-03T14:41:24.841Z,80
2018-02-03T14:42:34.852Z,75
2018-02-03T14:43:44.854Z,70
2018-02-03T14:44:54.840Z,65
2018-02-03T14:46:04.815Z,65
2018-02-03T14:47:14.821Z,65
2018-02-03T14:48:24.543Z,70
2018-02-03T14:49:34.540Z,70
2018-02-03T14:50:44.525Z,75
2018-02-03T14:51:54.514Z,70
2018-02-03T14:53:04.503Z,70
2018-02-03T14:54:14.476Z,65
2018-02-03T14:55:24.456Z,60
2018-02-03T14:56:34.180Z,60
2018-02-03T14:57:44.157Z,60
2018-02-03T14:58:54.147Z,55
2018-02-03T15:00:04.203Z,55
2018-02-03T15:01:14.205Z,50
2018-02-03T15:02:23.944Z,50
2018-02-03T15:03:33.669Z,45
2018-02-03T15:04:43.665Z,45
2018-02-03T15:05:53.656Z,40
2018-02-03T15:07:03.111Z,40
2018-02-03T15:08:13.099Z,35
2018-02-03T15:09:23.092Z,35
2018-02-03T15:10:33.123Z,35
2018-02-03T15:11:42.851Z,30
2018-02-03T15:12:52.573Z,30
2018-02-03T15:14:02.565Z,30
2018-02-03T15:15:12.305Z,25
2018-02-03T15:16:22.289Z,25
2018-02-03T15:17:32.036Z,20
2018-02-03T15:18:42.032Z,20
2018-02-03T15:19:51.764Z,20
2018-02-03T15:21:01.766Z,20
2018-02-03T15:22:11.493Z,15
2018-02-03T15:23:21.244Z,15
2018-02-03T15:24:31.310Z,10
2018-02-03T15:25:41.039Z,10
2018-02-03T15:26:51.036Z,10
2018-02-03T15:28:01.025Z,10
2018-02-03T15:29:10.770Z,5
2018-02-03T15:30:20.773Z,5
2018-02-03T15:31:30.752Z,5
2018-02-03T15:32:40.753Z,5
2018-02-03T15:33:50.740Z,5
2018-02-03T15:35:00.712Z,5
2018-02-03T15:36:10.463Z,5
2018-02-03T15:37:20.212Z,5
2018-02-03T15:38:30.195Z,5
2018-02-03T15:39:39.927Z,5
2018-02-03T15:40:49.915Z,5
2018-02-03T15:41:59.915Z,5
2018-02-03T15:43:09.905Z,5
2018-02-03T15:44:19.750Z,0
2018-02-03T15:45:29.750Z,0
2018-02-03T15:46:39.720Z,0
2018-02-03T15:47:49.717Z,0
2018-02-03T15:48:59.442Z,0
2018-02-03T15:50:09.434Z,0
2018-02-03T15:51:19.173Z,0
2018-02-03T15:52:28.919Z,0
2018-02-03T15:53:38.716Z,0
2018-02-03T15:54:48.706Z,0
2018-02-03T15:55:58.700Z,0
2018-02-03T15:57:07.895Z,0
2018-02-03T15:58:17.621Z,0
2018-02-03T15:59:27.347Z,0
2018-02-03T16:00:37.348Z,0
2018-02-03T16:01:47.338Z,0
2018-02-03T16:02:57.365Z,0
2018-02-03T16:04:06.834Z,0
2018-02-03T16:05:16.813Z,0
2018-02-03T16:06:26.042Z,0
2018-02-03T16:07:35.504Z,0
2018-02-03T16:08:45.229Z,0
2018-02-03T16:09:55.219Z,0
2018-02-03T16:11:04.951Z,0
2018-02-03T16:12:14.685Z,0
2018-02-03T16:13:24.663Z,0
2018-02-03T16:14:34.648Z,0
2018-02-03T16:15:44.687Z,0
2018-02-03T16:16:54.413Z,0
2018-02-03T16:18:04.407Z,0
2018-02-03T16:19:14.399Z,0
2018-02-03T16:20:24.389Z,0
2018-02-03T16:21:34.388Z,0
2018-02-03T16:22:44.374Z,0
2018-02-03T16:23:54.362Z,0
2018-02-03T16:25:04.360Z,0
2018-02-03T16:26:14.362Z,0
2018-02-03T16:27:24.335Z,0
2018-02-03T16:28:33.823Z,0
2018-02-03T16:29:43.826Z,0
2018-02-03T16:30:53.296Z,0
2018-02-03T16:32:03.009Z,0
2018-02-03T16:33:12.994Z,0
2018-02-03T16:34:23.255Z,0
2018-02-03T16:35:33.240Z,0
2018-02-03T16:36:42.960Z,0
2018-02-03T16:37:52.681Z,0
2018-02-03T16:39:02.428Z,0
2018-02-03T16:40:12.415Z,0
2018-02-03T16:41:22.405Z,0